Time,TemperatureF,DewpointF,PressureIn,WindDirection,WindDirectionDegrees,WindSpeedMPH,WindSpeedGustMPH,Humidity,HourlyPrecipIn,Conditions,Clouds,dailyrainin,SoftwareType,DateUTC
2013-01-29 00:01:00,19.0,16.0,-100.00,WSW,245,0.0,6.0,85,0.00,,,-99.99,,2013-01-29 07:01:00,
2013-01-29 00:11:00,19.0,16.0,-100.00,West,275,1.0,4.0,85,0.00,,,-99.99,,2013-01-29 07:11:00,
2013-01-29 00:21:00,19.0,16.0,-100.00,West,275,1.0,4.0,85,0.00,,,-99.99,,2013-01-29 07:21:00,
2013-01-29 00:31:00,19.0,15.0,-100.00,West,270,1.0,4.0,85,0.00,,,-99.99,,2013-01-29 07:31:00,
2013-01-29 00:41:00,19.0,15.0,-100.00,WSW,240,0.0,4.0,85,0.00,,,-99.99,,2013-01-29 07:41:00,
2013-01-29 00:51:00,19.0,15.0,-100.00,West,260,1.0,4.0,85,0.00,,,-99.99,,2013-01-29 07:51:00,
2013-01-29 01:01:00,19.0,15.0,-100.00,SSW,200,0.0,4.0,85,0.00,,,-99.99,,2013-01-29 08:01:00,
2013-01-29 01:11:00,18.0,15.0,-100.00,WSW,255,0.0,4.0,85,0.00,,,-99.99,,2013-01-29 08:11:00,
2013-01-29 01:21:00,18.0,15.0,-100.00,WSW,245,1.0,5.0,85,0.00,,,-99.99,,2013-01-29 08:21:00,
2013-01-29 01:31:00,18.0,14.0,-100.00,West,270,1.0,4.0,85,0.00,,,-99.99,,2013-01-29 08:31:00,
2013-01-29 01:41:00,18.0,14.0,-100.00,West,260,1.0,4.0,85,0.00,,,-99.99,,2013-01-29 08:41:00,
2013-01-29 01:51:00,18.0,14.0,-100.00,West,265,0.0,2.0,85,0.00,,,-99.99,,2013-01-29 08:51:00,
2013-01-29 02:01:00,18.0,14.0,-100.00,West,260,0.0,0.0,85,0.00,,,-99.99,,2013-01-29 09:01:00,
2013-01-29 02:11:00,18.0,14.0,-100.00,SW,235,0.0,4.0,85,0.00,,,-99.99,,2013-01-29 09:11:00,
2013-01-29 02:21:00,17.0,14.0,-100.00,WSW,250,2.0,6.0,85,0.00,,,-99.99,,2013-01-29 09:21:00,
2013-01-29 02:31:00,17.0,14.0,-100.00,SW,235,1.0,7.0,85,0.00,,,-99.99,,2013-01-29 09:31:00,
2013-01-29 02:42:00,17.0,14.0,-100.00,West,265,2.0,7.0,85,0.00,,,-99.99,,2013-01-29 09:42:00,
2013-01-29 02:51:00,17.0,14.0,-100.00,WSW,255,2.0,6.0,85,0.00,,,-99.99,,2013-01-29 09:51:00,
2013-01-29 03:01:00,17.0,13.0,-100.00,West,260,1.0,6.0,85,0.00,,,-99.99,,2013-01-29 10:01:00,
2013-01-29 03:11:00,17.0,13.0,-100.00,NW,315,3.0,6.0,85,0.00,,,-99.99,,2013-01-29 10:11:00,
2013-01-29 03:21:00,17.0,13.0,-100.00,West,260,3.0,9.0,85,0.00,,,-99.99,,2013-01-29 10:21:00,
2013-01-29 03:32:00,16.0,13.0,-100.00,WSW,245,0.0,4.0,85,0.00,,,-99.99,,2013-01-29 10:32:00,
2013-01-29 03:41:00,16.0,13.0,-100.00,West,260,1.0,3.0,85,0.00,,,-99.99,,2013-01-29 10:41:00,
2013-01-29 03:51:00,16.0,13.0,-100.00,West,265,0.0,4.0,85,0.00,,,-99.99,,2013-01-29 10:51:00,
2013-01-29 04:01:00,16.0,13.0,-100.00,SW,235,0.0,4.0,85,0.00,,,-99.99,,2013-01-29 11:01:00,
2013-01-29 04:11:00,16.0,12.0,-100.00,SW,215,0.0,2.0,85,0.00,,,-99.99,,2013-01-29 11:11:00,
2013-01-29 04:21:00,16.0,12.0,-100.00,WNW,285,0.0,4.0,85,0.00,,,-99.99,,2013-01-29 11:21:00,
2013-01-29 04:31:00,16.0,12.0,-100.00,WSW,240,0.0,2.0,85,0.00,,,-99.99,,2013-01-29 11:31:00,
2013-01-29 04:42:00,16.0,12.0,-100.00,SW,215,0.0,0.0,85,0.00,,,-99.99,,2013-01-29 11:42:00,
2013-01-29 04:52:00,16.0,12.0,-100.00,WNW,290,0.0,0.0,85,0.00,,,-99.99,,2013-01-29 11:52:00,
2013-01-29 05:02:00,16.0,12.0,-100.00,West,260,0.0,3.0,85,0.00,,,-99.99,,2013-01-29 12:02:00,
2013-01-29 05:12:00,16.0,12.0,-100.00,WSW,245,0.0,1.0,85,0.00,,,-99.99,,2013-01-29 12:12:00,
2013-01-29 05:21:00,15.0,12.0,-100.00,WSW,255,0.0,0.0,85,0.00,,,-99.99,,2013-01-29 12:21:00,
2013-01-29 05:32:00,15.0,12.0,-100.00,WSW,245,0.0,0.0,85,0.00,,,-99.99,,2013-01-29 12:32:00,
2013-01-29 05:42:00,15.0,12.0,-100.00,West,275,0.0,0.0,85,0.00,,,-99.99,,2013-01-29 12:42:00,
2013-01-29 05:52:00,15.0,12.0,-100.00,WSW,255,0.0,0.0,85,0.00,,,-99.99,,2013-01-29 12:52:00,
2013-01-29 06:01:00,15.0,12.0,-100.00,WSW,245,0.0,0.0,85,0.00,,,-99.99,,2013-01-29 13:01:00,
2013-01-29 06:11:00,15.0,12.0,-100.00,SSW,210,0.0,0.0,85,0.00,,,-99.99,,2013-01-29 13:11:00,
2013-01-29 06:22:00,15.0,11.0,-100.00,SSW,200,0.0,3.0,85,0.00,,,-99.99,,2013-01-29 13:22:00,
2013-01-29 06:31:00,15.0,11.0,-100.00,West,265,0.0,2.0,85,0.00,,,-99.99,,2013-01-29 13:31:00,
2013-01-29 06:42:00,15.0,11.0,-100.00,WSW,245,1.0,2.0,85,0.00,,,-99.99,,2013-01-29 13:42:00,
2013-01-29 06:52:00,14.0,11.0,-100.00,South,180,0.0,2.0,85,0.00,,,-99.99,,2013-01-29 13:52:00,
2013-01-29 07:01:00,14.0,10.0,-100.00,SSW,195,0.0,0.0,85,0.00,,,-99.99,,2013-01-29 14:01:00,
2013-01-29 07:12:00,13.0,9.0,-100.00,South,180,0.0,0.0,85,0.00,,,-99.99,,2013-01-29 14:12:00,
2013-01-29 07:21:00,12.0,8.0,-100.00,North,0,0.0,0.0,85,0.00,,,-99.99,,2013-01-29 14:21:00,
2013-01-29 07:32:00,11.0,7.0,-100.00,NE,55,0.0,0.0,85,0.00,,,-99.99,,2013-01-29 14:32:00,
2013-01-29 07:42:00,10.0,7.0,-100.00,NNW,340,0.0,0.0,85,0.00,,,-99.99,,2013-01-29 14:42:00,
2013-01-29 07:52:00,10.0,7.0,-100.00,NW,320,0.0,0.0,85,0.00,,,-99.99,,2013-01-29 14:52:00,
2013-01-29 08:02:00,10.0,7.0,-100.00,WNW,300,0.0,0.0,85,0.00,,,-99.99,,2013-01-29 15:02:00,
2013-01-29 08:11:00,11.0,7.0,-100.00,SE,125,3.0,6.0,85,0.00,,,-99.99,,2013-01-29 15:11:00,
2013-01-29 08:21:00,10.0,7.0,-100.00,NW,315,0.0,4.0,85,0.00,,,-99.99,,2013-01-29 15:21:00,
2013-01-29 08:32:00,13.0,9.0,-100.00,WSW,255,0.0,0.0,85,0.00,,,-99.99,,2013-01-29 15:32:00,
2013-01-29 08:42:00,12.0,9.0,-100.00,NE,35,0.0,4.0,85,0.00,,,-99.99,,2013-01-29 15:42:00,
2013-01-29 08:52:00,13.0,10.0,-100.00,NNW,340,0.0,1.0,84,0.00,,,-99.99,,2013-01-29 15:52:00,
2013-01-29 09:02:00,13.0,10.0,-100.00,East,80,0.0,0.0,84,0.00,,,-99.99,,2013-01-29 16:02:00,
2013-01-29 09:12:00,17.0,13.0,-100.00,ESE,120,0.0,2.0,84,0.00,,,-99.99,,2013-01-29 16:12:00,
2013-01-29 09:21:00,19.0,15.0,-100.00,WSW,255,0.0,3.0,83,0.00,,,-99.99,,2013-01-29 16:21:00,
2013-01-29 09:32:00,19.0,14.0,-100.00,East,80,2.0,4.0,81,0.00,,,-99.99,,2013-01-29 16:32:00,
2013-01-29 09:42:00,19.0,13.0,-100.00,East,95,1.0,3.0,79,0.00,,,-99.99,,2013-01-29 16:42:00,
2013-01-29 09:52:00,20.0,14.0,-100.00,East,100,0.0,2.0,77,0.00,,,-99.99,,2013-01-29 16:52:00,
2013-01-29 10:02:00,21.0,14.0,-100.00,East,95,0.0,2.0,75,0.00,,,-99.99,,2013-01-29 17:02:00,
2013-01-29 10:11:00,22.0,15.0,-100.00,ESE,105,1.0,2.0,72,0.00,,,-99.99,,2013-01-29 17:11:00,
2013-01-29 10:21:00,21.0,13.0,-100.00,East,95,1.0,3.0,69,0.00,,,-99.99,,2013-01-29 17:21:00,
2013-01-29 10:32:00,21.0,11.0,-100.00,NE,35,1.0,2.0,66,0.00,,,-99.99,,2013-01-29 17:32:00,
2013-01-29 10:42:00,22.0,12.0,-100.00,West,260,0.0,2.0,65,0.00,,,-99.99,,2013-01-29 17:42:00,
2013-01-29 10:52:00,25.0,14.0,-100.00,West,280,0.0,2.0,62,0.00,,,-99.99,,2013-01-29 17:52:00,
2013-01-29 11:02:00,26.0,13.0,-100.00,West,265,0.0,3.0,59,0.00,,,-99.99,,2013-01-29 18:02:00,
2013-01-29 11:11:00,26.0,12.0,-100.00,ENE,65,0.0,1.0,56,0.00,,,-99.99,,2013-01-29 18:11:00,
2013-01-29 11:21:00,28.0,13.0,-100.00,SSW,205,0.0,0.0,52,0.00,,,-99.99,,2013-01-29 18:21:00,
2013-01-29 11:33:00,30.0,13.0,-100.00,SSW,195,0.0,-999.0,49,0.00,,,-99.99,,2013-01-29 18:33:00,
2013-01-29 11:42:00,30.0,12.0,-100.00,WSW,255,0.0,2.0,46,0.00,,,-99.99,,2013-01-29 18:42:00,
2013-01-29 11:51:00,31.0,12.0,-100.00,West,260,2.0,4.0,44,0.00,,,-99.99,,2013-01-29 18:51:00,
2013-01-29 12:01:00,28.0,8.0,-100.00,WSW,245,2.0,6.0,41,0.00,,,-99.99,,2013-01-29 19:01:00,
2013-01-29 12:11:00,29.0,8.0,-100.00,WSW,245,2.0,4.0,40,0.00,,,-99.99,,2013-01-29 19:11:00,
2013-01-29 12:22:00,30.0,9.0,-100.00,West,260,2.0,6.0,40,0.00,,,-99.99,,2013-01-29 19:22:00,
2013-01-29 12:31:00,30.0,9.0,-100.00,WSW,255,1.0,4.0,39,0.00,,,-99.99,,2013-01-29 19:31:00,
2013-01-29 12:42:00,30.0,8.0,-100.00,WSW,240,0.0,6.0,38,0.00,,,-99.99,,2013-01-29 19:42:00,
2013-01-29 12:51:00,31.0,9.0,-100.00,WSW,255,2.0,4.0,37,0.00,,,-99.99,,2013-01-29 19:51:00,
2013-01-29 13:01:00,31.0,8.0,-100.00,WSW,245,2.0,6.0,37,0.00,,,-99.99,,2013-01-29 20:01:00,
2013-01-29 13:11:00,32.0,8.0,-100.00,West,280,1.0,6.0,36,0.00,,,-99.99,,2013-01-29 20:11:00,
2013-01-29 13:21:00,31.0,7.0,-100.00,West,265,2.0,6.0,35,0.00,,,-99.99,,2013-01-29 20:21:00,
2013-01-29 13:32:00,30.0,5.0,-100.00,West,275,3.0,7.0,34,0.00,,,-99.99,,2013-01-29 20:32:00,
2013-01-29 13:42:00,29.0,5.0,-100.00,West,265,4.0,7.0,34,0.00,,,-99.99,,2013-01-29 20:42:00,
2013-01-29 13:52:00,29.0,5.0,-100.00,West,265,2.0,6.0,35,0.00,,,-99.99,,2013-01-29 20:52:00,
2013-01-29 14:01:00,28.0,5.0,-100.00,WNW,295,3.0,7.0,36,0.00,,,-99.99,,2013-01-29 21:01:00,
2013-01-29 14:11:00,25.0,3.0,-100.00,WSW,240,2.0,9.0,37,0.00,,,-99.99,,2013-01-29 21:11:00,
2013-01-29 14:21:00,22.0,2.0,-100.00,NW,325,7.0,14.0,40,0.00,,,-99.99,,2013-01-29 21:21:00,
2013-01-29 14:32:00,22.0,2.0,-100.00,WNW,285,6.0,14.0,41,0.00,,,-99.99,,2013-01-29 21:32:00,
2013-01-29 14:42:00,22.0,3.0,-100.00,NW,320,7.0,15.0,43,0.00,,,-99.99,,2013-01-29 21:42:00,
2013-01-29 14:52:00,22.0,4.0,-100.00,WNW,290,4.0,12.0,44,0.00,,,-99.99,,2013-01-29 21:52:00,
2013-01-29 15:01:00,23.0,4.0,-100.00,West,265,3.0,7.0,44,0.00,,,-99.99,,2013-01-29 22:01:00,
2013-01-29 15:12:00,22.0,4.0,-100.00,NW,315,6.0,10.0,44,0.00,,,-99.99,,2013-01-29 22:12:00,
2013-01-29 15:21:00,24.0,6.0,-100.00,West,275,4.0,10.0,45,0.00,,,-99.99,,2013-01-29 22:21:00,
2013-01-29 15:32:00,24.0,6.0,-100.00,West,265,2.0,7.0,46,0.00,,,-99.99,,2013-01-29 22:32:00,
2013-01-29 15:42:00,24.0,7.0,-100.00,WSW,240,2.0,6.0,47,0.00,,,-99.99,,2013-01-29 22:42:00,
2013-01-29 15:52:00,24.0,8.0,-100.00,West,260,4.0,6.0,48,0.00,,,-99.99,,2013-01-29 22:52:00,
2013-01-29 16:01:00,24.0,8.0,-100.00,West,265,4.0,8.0,48,0.00,,,-99.99,,2013-01-29 23:01:00,
2013-01-29 16:11:00,23.0,7.0,-100.00,West,270,4.0,7.0,48,0.00,,,-99.99,,2013-01-29 23:11:00,
2013-01-29 16:21:00,21.0,5.0,-100.00,West,265,3.0,7.0,48,0.00,,,-99.99,,2013-01-29 23:21:00,
2013-01-29 16:32:00,20.0,4.0,-100.00,West,260,1.0,5.0,49,0.00,,,-99.99,,2013-01-29 23:32:00,
2013-01-29 16:41:00,20.0,4.0,-100.00,West,265,2.0,4.0,50,0.00,,,-99.99,,2013-01-29 23:41:00,
2013-01-29 16:52:00,20.0,5.0,-100.00,West,270,0.0,3.0,51,0.00,,,-99.99,,2013-01-29 23:52:00,
2013-01-29 17:02:00,19.0,5.0,-100.00,WSW,255,2.0,4.0,52,0.00,,,-99.99,,2013-01-30 00:02:00,
2013-01-29 17:11:00,19.0,6.0,-100.00,West,275,2.0,6.0,54,0.00,,,-99.99,,2013-01-30 00:11:00,
2013-01-29 17:21:00,19.0,6.0,-100.00,West,275,2.0,6.0,55,0.00,,,-99.99,,2013-01-30 00:21:00,
2013-01-29 17:32:00,20.0,7.0,-100.00,West,270,2.0,6.0,56,0.00,,,-99.99,,2013-01-30 00:32:00,
2013-01-29 17:42:00,19.0,6.0,-100.00,West,265,1.0,6.0,57,0.00,,,-99.99,,2013-01-30 00:42:00,
2013-01-29 17:52:00,18.0,6.0,-100.00,NW,315,2.0,6.0,58,0.00,,,-99.99,,2013-01-30 00:52:00,
2013-01-29 18:01:00,18.0,7.0,-100.00,West,260,2.0,4.0,59,0.00,,,-99.99,,2013-01-30 01:01:00,
2013-01-29 18:11:00,18.0,6.0,-100.00,West,275,1.0,4.0,60,0.00,,,-99.99,,2013-01-30 01:11:00,
2013-01-29 18:22:00,17.0,6.0,-100.00,West,280,1.0,4.0,61,0.00,,,-99.99,,2013-01-30 01:22:00,
2013-01-29 18:31:00,17.0,6.0,-100.00,West,265,1.0,4.0,62,0.00,,,-99.99,,2013-01-30 01:31:00,
2013-01-29 18:42:00,17.0,6.0,-100.00,West,280,0.0,2.0,63,0.00,,,-99.99,,2013-01-30 01:42:00,
2013-01-29 18:51:00,16.0,6.0,-100.00,WSW,255,1.0,4.0,64,0.00,,,-99.99,,2013-01-30 01:51:00,
2013-01-29 19:01:00,15.0,5.0,-100.00,West,265,1.0,3.0,65,0.00,,,-99.99,,2013-01-30 02:01:00,
2013-01-29 19:12:00,14.0,5.0,-100.00,West,280,1.0,2.0,65,0.00,,,-99.99,,2013-01-30 02:12:00,
2013-01-29 19:21:00,14.0,5.0,-100.00,WSW,245,0.0,5.0,66,0.00,,,-99.99,,2013-01-30 02:21:00,
2013-01-29 19:33:00,15.0,6.0,-100.00,North,10,0.0,1.0,67,0.00,,,-99.99,,2013-01-30 02:33:00,
2013-01-29 19:41:00,15.0,6.0,-100.00,East,95,2.0,2.0,68,0.00,,,-99.99,,2013-01-30 02:41:00,
2013-01-29 19:52:00,15.0,7.0,-100.00,SE,125,0.0,4.0,68,0.00,,,-99.99,,2013-01-30 02:52:00,
2013-01-29 20:02:00,15.0,7.0,-100.00,East,85,0.0,2.0,69,0.00,,,-99.99,,2013-01-30 03:02:00,
2013-01-29 20:11:00,15.0,7.0,-100.00,SSW,200,0.0,0.0,69,0.00,,,-99.99,,2013-01-30 03:11:00,
2013-01-29 20:21:00,16.0,8.0,-100.00,NE,45,0.0,1.0,70,0.00,,,-99.99,,2013-01-30 03:21:00,
2013-01-29 20:31:00,16.0,8.0,-100.00,ENE,75,0.0,0.0,71,0.00,,,-99.99,,2013-01-30 03:31:00,
2013-01-29 20:42:00,16.0,8.0,-100.00,East,80,0.0,0.0,71,0.00,,,-99.99,,2013-01-30 03:42:00,
2013-01-29 20:51:00,16.0,9.0,-100.00,ENE,60,0.0,0.0,71,0.00,,,-99.99,,2013-01-30 03:51:00,
2013-01-29 21:01:00,16.0,9.0,-100.00,North,355,0.0,0.0,72,0.00,,,-99.99,,2013-01-30 04:01:00,
2013-01-29 21:11:00,16.0,9.0,-100.00,WSW,255,0.0,0.0,72,0.00,,,-99.99,,2013-01-30 04:11:00,
2013-01-29 21:21:00,16.0,9.0,-100.00,NW,315,0.0,0.0,72,0.00,,,-99.99,,2013-01-30 04:21:00,
2013-01-29 21:31:00,16.0,9.0,-100.00,SW,225,0.0,0.0,73,0.00,,,-99.99,,2013-01-30 04:31:00,
2013-01-29 21:41:00,16.0,9.0,-100.00,NE,50,0.0,0.0,73,0.00,,,-99.99,,2013-01-30 04:41:00,
2013-01-29 21:51:00,16.0,9.0,-100.00,NE,50,0.0,0.0,74,0.00,,,-99.99,,2013-01-30 04:51:00,
2013-01-29 22:03:00,15.0,8.0,-100.00,NNE,20,0.0,0.0,74,0.00,,,-99.99,,2013-01-30 05:03:00,
2013-01-29 22:11:00,14.0,8.0,-100.00,East,100,0.0,0.0,74,0.00,,,-99.99,,2013-01-30 05:11:00,
2013-01-29 22:21:00,14.0,8.0,-100.00,East,95,0.0,0.0,75,0.00,,,-99.99,,2013-01-30 05:21:00,
2013-01-29 22:32:00,14.0,8.0,-100.00,SE,145,0.0,0.0,76,0.00,,,-99.99,,2013-01-30 05:32:00,
2013-01-29 22:42:00,12.0,6.0,-100.00,NNE,30,0.0,0.0,76,0.00,,,-99.99,,2013-01-30 05:42:00,
2013-01-29 22:51:00,12.0,6.0,-100.00,SSW,195,0.0,0.0,76,0.00,,,-99.99,,2013-01-30 05:51:00,
2013-01-29 23:02:00,12.0,7.0,-100.00,SSE,165,0.0,0.0,77,0.00,,,-99.99,,2013-01-30 06:02:00,
2013-01-29 23:11:00,12.0,7.0,-100.00,North,0,0.0,0.0,77,0.00,,,-99.99,,2013-01-30 06:11:00,
2013-01-29 23:21:00,12.0,6.0,-100.00,NNW,335,0.0,0.0,78,0.00,,,-99.99,,2013-01-30 06:21:00,
2013-01-29 23:31:00,11.0,6.0,-100.00,ESE,120,0.0,0.0,78,0.00,,,-99.99,,2013-01-30 06:31:00,
2013-01-29 23:41:00,11.0,6.0,-100.00,South,175,0.0,0.0,78,0.00,,,-99.99,,2013-01-30 06:41:00,
2013-01-29 23:51:00,11.0,6.0,-100.00,North,10,0.0,0.0,78,0.00,,,-99.99,,2013-01-30 06:51:00,